Time;durP1;ratioP1;P1;durP2;ratioP2;P2;SDS_P1;SDS_P2;PMS_P1;PMS_P2;Temp;Humidity;BMP_temperature;BMP_pressure;BME280_temperature;BME280_humidity;BME280_pressure;Samples;Min_cycle;Max_cycle;Signal;HPM_P1;HPM_P2
2022/09/20 00:02:20;;;;;;;15.43;1.70;;;9.40;99.90;;;;;;5033185;28;20486;-88
2022/09/20 00:04:48;;;;;;;10.60;1.80;;;9.40;99.90;;;;;;5048243;28;20502;-87
2022/09/20 00:07:14;;;;;;;13.32;1.67;;;9.30;99.90;;;;;;5001834;28;20077;-88
2022/09/20 00:09:40;;;;;;;18.73;1.35;;;9.40;99.90;;;;;;5033006;28;20100;-87
2022/09/20 00:12:07;;;;;;;12.35;1.30;;;9.20;99.90;;;;;;5032322;28;20172;-88
2022/09/20 00:14:32;;;;;;;7.57;1.00;;;9.10;99.90;;;;;;5031466;28;20042;-88
2022/09/20 00:16:58;;;;;;;11.05;1.70;;;9.10;99.90;;;;;;5032772;28;20045;-88
2022/09/20 00:19:24;;;;;;;12.90;1.30;;;9.10;99.90;;;;;;5017831;28;20042;-89
2022/09/20 00:21:50;;;;;;;16.35;1.33;;;9.10;99.90;;;;;;5035021;28;20050;-88
2022/09/20 00:24:15;;;;;;;10.68;1.35;;;9.10;99.90;;;;;;5036883;28;20427;-88
2022/09/20 00:26:41;;;;;;;11.85;1.50;;;9.10;99.90;;;;;;5036528;28;20099;-88
2022/09/20 00:29:07;;;;;;;14.65;1.27;;;9.20;99.90;;;;;;5051776;28;20049;-87
2022/09/20 00:31:34;;;;;;;9.10;1.42;;;9.20;99.90;;;;;;5036115;28;20046;-88
2022/09/20 00:36:44;;;;;;;7.53;1.40;;;9.10;99.90;;;;;;5035743;28;20132;-87
2022/09/20 00:39:12;;;;;;;7.30;1.17;;;9.10;99.90;;;;;;5051563;28;20141;-88
2022/09/20 00:41:37;;;;;;;9.43;1.27;;;9.10;99.90;;;;;;5035472;28;20125;-87
2022/09/20 00:44:41;;;;;;;10.07;1.75;;;9.20;99.90;;;;;;5034737;28;20081;-88
2022/09/20 00:47:22;;;;;;;9.95;1.25;;;9.10;99.90;;;;;;5034884;28;20049;-88
2022/09/20 00:49:49;;;;;;;9.90;1.38;;;9.00;99.90;;;;;;5035892;28;20399;-87
2022/09/20 00:52:16;;;;;;;7.53;1.25;;;9.00;99.90;;;;;;5051014;28;20483;-87
2022/09/20 00:54:41;;;;;;;8.95;1.23;;;8.90;99.90;;;;;;5051285;28;20045;-87
2022/09/20 00:57:07;;;;;;;10.77;1.27;;;8.90;99.90;;;;;;5035635;28;20052;-88
2022/09/20 00:59:38;;;;;;;12.80;1.40;;;8.80;99.90;;;;;;5034651;28;20041;-88
2022/09/20 01:02:15;;;;;;;;;;;8.90;99.90;;;;;;5034948;28;20065;-88
2022/09/20 01:04:43;;;;;;;8.98;1.35;;;8.80;99.90;;;;;;5034869;28;19974;-87
2022/09/20 01:07:11;;;;;;;9.13;1.30;;;8.90;99.90;;;;;;5034781;28;20486;-88
2022/09/20 01:09:37;;;;;;;6.97;1.25;;;8.80;99.90;;;;;;5035804;28;20061;-87
2022/09/20 01:12:06;;;;;;;11.25;1.13;;;8.80;99.90;;;;;;5035144;28;20057;-87
2022/09/20 01:14:32;;;;;;;10.77;1.30;;;8.80;99.90;;;;;;5034811;28;20038;-87
2022/09/20 01:17:03;;;;;;;12.43;1.30;;;8.80;99.90;;;;;;5051119;28;20056;-87
2022/09/20 01:19:40;;;;;;;10.07;1.20;;;8.90;99.90;;;;;;5035608;28;20091;-87
2022/09/20 01:22:16;;;;;;;10.85;1.40;;;9.00;99.90;;;;;;5034747;28;20053;-87
2022/09/20 01:25:08;;;;;;;9.35;1.25;;;8.90;99.90;;;;;;5034935;28;20052;-87
2022/09/20 01:27:41;;;;;;;7.22;1.50;;;9.00;99.90;;;;;;5035568;28;20045;-87
2022/09/20 01:30:12;;;;;;;9.07;1.20;;;9.00;99.90;;;;;;5034214;28;20080;-87
2022/09/20 01:33:05;;;;;;;10.55;1.30;;;9.00;99.90;;;;;;5034941;28;20509;-86
2022/09/20 01:35:34;;;;;;;9.75;1.45;;;9.00;99.90;;;;;;5034479;28;20053;-88
2022/09/20 01:38:27;;;;;;;7.70;1.33;;;9.00;99.90;;;;;;5050916;28;20049;-87
2022/09/20 01:41:13;;;;;;;9.00;1.30;;;8.90;99.90;;;;;;5034649;28;20052;-87
2022/09/20 01:43:58;;;;;;;14.85;1.60;;;8.80;99.90;;;;;;5050673;28;20060;-88
2022/09/20 01:46:30;;;;;;;11.65;1.55;;;8.80;99.90;;;;;;5016069;28;20128;-87
2022/09/20 01:49:18;;;;;;;9.95;1.20;;;8.70;99.90;;;;;;5035060;28;20459;-87
2022/09/20 01:51:44;;;;;;;7.88;1.20;;;8.60;99.90;;;;;;5042966;28;20057;-87
2022/09/20 01:54:51;;;;;;;9.68;1.10;;;8.60;99.90;;;;;;5033957;28;20041;-87
2022/09/20 01:57:35;;;;;;;12.48;1.20;;;8.50;99.90;;;;;;5033666;28;20049;-87
2022/09/20 02:00:06;;;;;;;8.52;1.02;;;8.50;99.90;;;;;;5033627;28;20395;-87
2022/09/20 02:02:48;;;;;;;10.30;1.27;;;8.50;99.90;;;;;;5034591;28;20045;-87
2022/09/20 02:05:48;;;;;;;9.90;1.10;;;8.50;99.90;;;;;;5034764;28;20056;-87
2022/09/20 02:08:19;;;;;;;9.75;1.52;;;8.50;99.90;;;;;;5033557;28;20098;-87
2022/09/20 02:10:48;;;;;;;10.02;1.15;;;8.50;99.90;;;;;;5034200;28;20049;-87
2022/09/20 02:13:30;;;;;;;8.93;1.20;;;8.50;99.90;;;;;;5032970;28;20057;-87
2022/09/20 02:16:25;;;;;;;10.88;1.15;;;8.50;99.90;;;;;;5034996;28;20053;-87
2022/09/20 02:19:29;;;;;;;8.07;1.13;;;8.40;99.90;;;;;;5032971;28;20136;-87
2022/09/20 02:22:28;;;;;;;8.77;1.48;;;8.40;99.90;;;;;;5032374;28;20059;-87
2022/09/20 02:25:01;;;;;;;9.23;1.13;;;8.40;99.90;;;;;;5033323;28;20049;-86
2022/09/20 02:27:57;;;;;;;7.28;1.25;;;8.40;99.90;;;;;;5033013;28;20461;-86
2022/09/20 02:30:29;;;;;;;7.00;0.90;;;8.30;99.90;;;;;;5033190;28;20136;-87
2022/09/20 02:33:10;;;;;;;9.63;1.13;;;8.30;99.90;;;;;;5033029;28;20134;-87
2022/09/20 02:35:50;;;;;;;8.88;1.27;;;8.20;99.90;;;;;;5033097;28;20054;-87
2022/09/20 02:38:28;;;;;;;7.93;1.23;;;8.20;99.90;;;;;;5049283;28;20053;-86
2022/09/20 02:41:29;;;;;;;7.40;1.13;;;8.20;99.90;;;;;;5048712;28;20072;-87
2022/09/20 02:44:53;;;;;;;5.35;1.20;;;8.20;99.90;;;;;;5022440;28;20060;-87
2022/09/20 02:47:26;;;;;;;11.90;1.35;;;8.10;99.90;;;;;;5051643;28;20060;-87
2022/09/20 02:50:37;;;;;;;7.22;1.38;;;8.00;99.90;;;;;;5051423;28;20059;-88
2022/09/20 02:53:29;;;;;;;9.70;1.08;;;8.00;99.90;;;;;;4986137;28;20140;-87
2022/09/20 02:56:03;;;;;;;7.28;1.30;;;8.00;99.90;;;;;;5032471;28;20120;-87
2022/09/20 02:58:54;;;;;;;10.13;1.40;;;8.00;99.90;;;;;;5032502;28;20483;-87
2022/09/20 03:01:23;;;;;;;12.80;1.70;;;8.00;99.90;;;;;;5032656;28;20049;-87
2022/09/20 03:04:10;;;;;;;8.10;1.33;;;8.00;99.90;;;;;;5033415;28;20056;-86
2022/09/20 03:06:47;;;;;;;7.63;1.30;;;8.10;99.90;;;;;;5033482;28;20450;-87
2022/09/20 03:09:41;;;;;;;10.90;1.45;;;8.10;99.90;;;;;;5033609;28;20037;-87
2022/09/20 03:12:19;;;;;;;7.70;1.42;;;8.20;99.90;;;;;;5032227;28;20491;-87
2022/09/20 03:14:59;;;;;;;9.30;1.38;;;8.40;99.90;;;;;;5033497;28;20121;-86
2022/09/20 03:17:46;;;;;;;10.25;1.70;;;8.40;99.90;;;;;;5033526;28;20049;-87
2022/09/20 03:20:24;;;;;;;7.88;1.00;;;8.50;99.90;;;;;;5048852;28;20049;-86
2022/09/20 03:23:04;;;;;;;6.80;1.10;;;8.50;99.90;;;;;;5032439;28;20041;-86
2022/09/20 03:26:01;;;;;;;7.60;1.00;;;8.60;99.90;;;;;;5032344;28;20049;-87
2022/09/20 03:28:49;;;;;;;7.85;1.20;;;8.70;99.90;;;;;;5033335;28;20143;-87
2022/09/20 03:31:37;;;;;;;8.77;1.38;;;8.80;99.90;;;;;;5013181;28;20057;-87
2022/09/20 03:34:49;;;;;;;7.90;1.27;;;8.80;99.90;;;;;;5016012;28;20057;-86
2022/09/20 03:37:25;;;;;;;10.30;1.33;;;8.90;99.90;;;;;;5031433;28;20149;-88
2022/09/20 03:39:59;;;;;;;8.35;1.50;;;8.90;99.90;;;;;;5032244;28;20503;-86
2022/09/20 03:42:28;;;;;;;3.53;1.10;;;9.00;99.90;;;;;;5032441;28;20052;-87
2022/09/20 03:45:21;;;;;;;9.68;1.40;;;9.00;99.90;;;;;;5031744;28;20479;-87
2022/09/20 03:47:53;;;;;;;5.90;1.05;;;9.00;99.90;;;;;;5032914;28;20578;-86
2022/09/20 03:50:34;;;;;;;8.80;1.25;;;9.10;99.90;;;;;;5032163;28;20072;-87
2022/09/20 03:53:38;;;;;;;7.97;1.45;;;9.10;99.90;;;;;;5050416;28;20045;-86
2022/09/20 03:56:40;;;;;;;8.98;1.13;;;9.20;99.90;;;;;;5027016;28;20506;-86
2022/09/20 03:59:17;;;;;;;;;;;9.20;99.90;;;;;;5035664;28;20049;-86
2022/09/20 04:02:06;;;;;;;10.40;1.30;;;9.30;99.90;;;;;;5066845;28;19921;-87
2022/09/20 04:04:50;;;;;;;5.00;1.20;;;9.30;99.90;;;;;;5037970;28;20052;-87
2022/09/20 04:07:44;;;;;;;13.82;1.50;;;9.30;99.90;;;;;;5035860;28;20057;-87
2022/09/20 04:10:23;;;;;;;8.90;1.45;;;9.40;99.90;;;;;;5026690;28;20484;-86
2022/09/20 04:13:20;;;;;;;12.20;1.30;;;9.40;99.90;;;;;;5034955;28;20057;-86
2022/09/20 04:16:16;;;;;;;4.85;0.98;;;9.50;99.90;;;;;;5013009;28;20045;-87
2022/09/20 04:18:49;;;;;;;10.25;1.70;;;9.60;99.90;;;;;;5052227;28;20046;-87
2022/09/20 04:21:31;;;;;;;8.20;1.40;;;9.60;99.90;;;;;;5052226;28;20056;-86
2022/09/20 04:24:22;;;;;;;9.77;1.40;;;9.70;99.90;;;;;;5036074;28;20049;-86
2022/09/20 04:26:59;;;;;;;6.78;1.05;;;9.70;99.90;;;;;;5036184;28;20045;-87
2022/09/20 04:29:30;;;;;;;7.45;1.40;;;9.80;99.90;;;;;;5033899;28;20464;-86
2022/09/20 04:32:02;;;;;;;4.90;1.00;;;9.80;99.90;;;;;;5034652;28;20103;-87
2022/09/20 04:37:32;;;;;;;11.38;1.25;;;9.80;99.90;;;;;;4996145;28;20050;-86
2022/09/20 04:40:14;;;;;;;8.93;1.20;;;9.80;99.90;;;;;;5014396;28;20042;-86
2022/09/20 04:43:13;;;;;;;6.95;1.13;;;9.80;99.90;;;;;;5035213;28;20103;-89
2022/09/20 04:46:00;;;;;;;6.45;1.10;;;9.90;99.90;;;;;;5036357;28;20041;-86
2022/09/20 04:48:47;;;;;;;8.05;1.20;;;9.90;99.90;;;;;;5026691;28;20402;-87
2022/09/20 04:51:33;;;;;;;8.35;1.33;;;9.90;99.90;;;;;;5034757;28;20045;-87
2022/09/20 04:54:37;;;;;;;6.10;1.23;;;9.90;99.90;;;;;;5051378;28;20045;-86
2022/09/20 04:57:03;;;;;;;6.97;1.35;;;9.90;99.90;;;;;;5033990;28;20107;-87
2022/09/20 04:59:32;;;;;;;9.30;1.00;;;9.90;99.90;;;;;;5031808;28;20556;-86
2022/09/20 05:02:05;;;;;;;6.40;1.10;;;9.90;99.90;;;;;;5022439;28;20072;-87
2022/09/20 05:04:52;;;;;;;7.72;1.30;;;9.90;99.90;;;;;;5014501;28;20054;-86
2022/09/20 05:07:48;;;;;;;9.20;1.13;;;9.90;99.90;;;;;;5028122;28;20041;-86
2022/09/20 05:10:25;;;;;;;10.27;1.23;;;9.90;99.90;;;;;;5008577;28;20049;-86
2022/09/20 05:13:27;;;;;;;4.45;1.20;;;9.80;99.90;;;;;;5034445;28;20065;-86
2022/09/20 05:16:15;;;;;;;5.78;1.02;;;9.80;99.90;;;;;;5032805;28;20129;-86
2022/09/20 05:18:44;;;;;;;8.43;1.40;;;9.70;99.90;;;;;;5015049;28;20044;-86
2022/09/20 05:21:23;;;;;;;6.60;1.27;;;9.70;99.90;;;;;;5014973;28;20472;-86
2022/09/20 05:24:07;;;;;;;6.82;1.10;;;9.60;99.90;;;;;;5015877;28;20483;-86
2022/09/20 05:26:42;;;;;;;9.25;1.25;;;9.50;99.90;;;;;;5014975;28;20092;-86
2022/09/20 05:29:28;;;;;;;6.38;1.00;;;9.50;99.90;;;;;;5015040;28;20046;-87
2022/09/20 05:32:25;;;;;;;5.85;1.10;;;9.40;99.90;;;;;;5028712;28;20051;-86
2022/09/20 05:35:14;;;;;;;7.80;1.27;;;9.40;99.90;;;;;;5032194;28;20045;-86
2022/09/20 05:38:10;;;;;;;7.13;1.20;;;9.40;99.90;;;;;;5030044;28;20048;-86
2022/09/20 05:41:14;;;;;;;9.07;1.48;;;9.40;99.90;;;;;;5045634;28;20052;-85
2022/09/20 05:43:40;;;;;;;5.43;0.98;;;9.50;99.90;;;;;;5034392;28;20049;-86
2022/09/20 05:46:47;;;;;;;9.23;1.55;;;9.50;99.90;;;;;;5035249;28;20510;-85
2022/09/20 05:49:41;;;;;;;8.15;1.08;;;9.60;99.90;;;;;;5037030;28;20534;-85
2022/09/20 05:52:58;;;;;;;4.20;1.00;;;9.70;99.90;;;;;;5034023;28;20483;-85
2022/09/20 05:55:59;;;;;;;6.28;1.40;;;9.70;99.90;;;;;;5033256;28;20151;-85
2022/09/20 05:58:43;;;;;;;5.18;1.20;;;9.80;99.90;;;;;;5036065;28;20053;-85
2022/09/20 06:01:39;;;;;;;7.88;1.13;;;9.80;99.90;;;;;;5036240;28;20499;-85
2022/09/20 06:04:24;;;;;;;6.72;1.10;;;9.90;99.90;;;;;;5033972;28;20458;-85
2022/09/20 06:07:25;;;;;;;4.93;0.90;;;9.90;99.90;;;;;;5050063;28;20051;-85
2022/09/20 06:10:14;;;;;;;6.82;1.17;;;10.00;99.90;;;;;;5036988;28;20137;-85
2022/09/20 06:12:59;;;;;;;9.52;1.23;;;10.10;99.90;;;;;;5033116;28;20057;-85
2022/09/20 06:15:43;;;;;;;10.07;1.20;;;10.20;99.90;;;;;;5035067;28;20050;-85
2022/09/20 06:18:49;;;;;;;8.80;1.42;;;10.20;99.90;;;;;;5033353;28;20046;-85
2022/09/20 06:21:59;;;;;;;4.85;0.82;;;10.30;99.90;;;;;;5041173;28;20049;-85
2022/09/20 06:24:56;;;;;;;7.47;1.03;;;10.30;99.90;;;;;;5032976;28;20207;-85
2022/09/20 06:27:47;;;;;;;7.75;1.35;;;10.40;99.90;;;;;;5033085;28;20288;-85
2022/09/20 06:30:27;;;;;;;4.63;0.90;;;10.50;99.90;;;;;;5037326;28;20145;-85
2022/09/20 06:33:05;;;;;;;6.53;1.60;;;10.60;99.90;;;;;;5034928;28;20431;-86
2022/09/20 06:35:49;;;;;;;11.52;2.53;;;10.70;99.90;;;;;;5034093;28;20045;-87
2022/09/20 06:43:43;;;;;;;4.68;1.25;;;10.90;99.90;;;;;;5033610;28;20458;-86
2022/09/20 06:46:11;;;;;;;7.88;0.95;;;11.00;99.90;;;;;;5034848;28;20050;-86
2022/09/20 06:48:38;;;;;;;6.97;1.45;;;11.10;99.90;;;;;;5037929;28;20092;-86
2022/09/20 06:51:06;;;;;;;7.72;1.55;;;11.20;99.90;;;;;;5016996;28;20498;-87
2022/09/20 06:53:35;;;;;;;7.55;1.40;;;11.20;99.90;;;;;;5033126;28;20038;-87
2022/09/20 06:56:02;;;;;;;5.00;1.42;;;11.40;99.90;;;;;;5034052;28;20698;-86
2022/09/20 06:58:28;;;;;;;11.20;1.75;;;11.40;99.90;;;;;;5032645;28;20418;-87
2022/09/20 07:00:54;;;;;;;9.73;1.30;;;11.50;99.90;;;;;;5033795;28;20549;-87
2022/09/20 07:03:19;;;;;;;5.88;1.38;;;11.50;99.90;;;;;;5033088;28;20136;-86
2022/09/20 07:05:45;;;;;;;7.93;1.48;;;11.50;99.90;;;;;;5032714;28;20045;-86
2022/09/20 07:08:11;;;;;;;7.43;1.48;;;11.60;99.90;;;;;;5033526;28;20049;-87
2022/09/20 07:10:37;;;;;;;7.63;1.15;;;11.60;99.90;;;;;;5033334;28;20049;-87
2022/09/20 07:13:04;;;;;;;6.32;1.48;;;11.60;99.90;;;;;;5032036;28;20410;-88
2022/09/20 07:15:32;;;;;;;5.70;1.38;;;11.50;99.90;;;;;;5033802;28;20461;-86
2022/09/20 07:17:59;;;;;;;4.45;1.10;;;11.60;99.90;;;;;;5032806;28;20128;-87
2022/09/20 07:20:25;;;;;;;8.50;2.30;;;11.60;99.90;;;;;;5033406;28;20042;-86
2022/09/20 07:22:52;;;;;;;8.40;1.50;;;11.70;99.90;;;;;;5032076;28;20115;-87
2022/09/20 07:25:18;;;;;;;6.03;1.52;;;11.70;99.90;;;;;;5033556;28;20041;-86
2022/09/20 07:27:45;;;;;;;8.18;1.40;;;11.90;99.90;;;;;;5033429;28;20041;-86
2022/09/20 07:30:13;;;;;;;7.50;1.50;;;11.90;99.90;;;;;;5048927;28;20422;-87
2022/09/20 07:32:39;;;;;;;5.70;1.10;;;12.00;99.90;;;;;;5032486;28;20124;-87
2022/09/20 07:35:08;;;;;;;5.53;1.10;;;12.00;99.90;;;;;;5015941;28;20107;-87
2022/09/20 07:37:33;;;;;;;4.07;0.80;;;12.10;99.90;;;;;;5033045;28;20085;-87
2022/09/20 07:39:59;;;;;;;4.78;1.00;;;12.20;99.90;;;;;;5032181;28;20443;-87
2022/09/20 07:42:25;;;;;;;5.20;1.23;;;12.20;99.90;;;;;;5032117;28;20403;-87
2022/09/20 07:44:52;;;;;;;4.05;1.15;;;12.30;99.90;;;;;;5032328;28;20442;-87
2022/09/20 07:47:17;;;;;;;8.70;1.08;;;12.40;99.90;;;;;;5031978;28;20467;-87
2022/09/20 07:49:43;;;;;;;7.80;1.05;;;12.40;99.90;;;;;;5033119;28;20084;-87
2022/09/20 07:52:10;;;;;;;6.68;1.10;;;12.50;99.90;;;;;;5031930;28;20081;-87
2022/09/20 07:54:35;;;;;;;8.00;1.10;;;12.50;99.90;;;;;;5033172;28;20042;-87
2022/09/20 07:57:02;;;;;;;5.03;0.80;;;12.50;99.90;;;;;;5048616;28;20049;-88
2022/09/20 07:59:27;;;;;;;5.90;0.85;;;12.60;99.90;;;;;;5032098;28;20050;-88
2022/09/20 08:01:53;;;;;;;5.70;1.05;;;12.80;99.90;;;;;;5031851;28;20514;-87
2022/09/20 08:04:19;;;;;;;5.32;1.05;;;13.00;99.90;;;;;;5032905;28;20487;-87
2022/09/20 08:06:45;;;;;;;9.35;1.27;;;13.20;99.90;;;;;;5032859;28;20088;-87
2022/09/20 08:09:12;;;;;;;7.32;1.10;;;13.20;99.90;;;;;;5031961;28;20041;-88
2022/09/20 08:11:39;;;;;;;5.57;0.85;;;13.30;99.90;;;;;;5032776;28;20072;-86
2022/09/20 08:14:06;;;;;;;5.50;0.98;;;13.40;99.90;;;;;;5033272;28;20053;-87
2022/09/20 08:16:41;;;;;;;6.47;1.02;;;13.50;99.90;;;;;;5048652;28;20096;-87
2022/09/20 08:19:07;;;;;;;6.78;1.30;;;13.60;99.90;;;;;;5033269;28;20384;-90
2022/09/20 08:21:34;;;;;;;7.90;0.93;;;13.60;99.90;;;;;;5049085;28;20056;-87
2022/09/20 08:24:00;;;;;;;8.77;1.20;;;13.80;99.90;;;;;;5033787;28;20077;-87
2022/09/20 08:26:30;;;;;;;6.15;0.80;;;13.80;99.90;;;;;;5032285;28;20486;-87
2022/09/20 08:28:57;;;;;;;6.35;0.82;;;13.90;99.90;;;;;;5031830;28;20049;-87
2022/09/20 08:31:25;;;;;;;7.55;0.77;;;14.00;99.90;;;;;;5032753;28;20049;-87
2022/09/20 08:33:53;;;;;;;6.32;0.80;;;14.20;99.90;;;;;;5031796;28;20050;-89
2022/09/20 08:36:21;;;;;;;9.32;0.90;;;14.30;99.90;;;;;;5032266;28;20072;-87
2022/09/20 08:38:47;;;;;;;7.18;0.73;;;14.40;99.90;;;;;;5032874;28;20131;-87
2022/09/20 08:41:45;;;;;;;6.45;1.00;;;14.50;99.90;;;;;;5035862;28;20053;-88
2022/09/20 08:44:25;;;;;;;5.07;0.80;;;14.60;99.90;;;;;;5035070;28;20100;-88
2022/09/20 08:47:19;;;;;;;5.55;1.00;;;15.00;99.90;;;;;;5035163;28;20038;-88
2022/09/20 08:49:45;;;;;;;5.10;0.80;;;15.30;99.90;;;;;;5036292;28;20045;-88
2022/09/20 08:52:16;;;;;;;5.88;0.77;;;15.50;99.90;;;;;;5035096;28;20064;-87
2022/09/20 08:54:42;;;;;;;8.93;1.20;;;15.60;99.90;;;;;;5036164;28;20092;-87
2022/09/20 08:57:14;;;;;;;9.30;1.35;;;15.50;99.90;;;;;;5036337;28;20053;-88
2022/09/20 08:59:40;;;;;;;8.10;0.93;;;15.30;99.90;;;;;;5036631;28;20099;-88
2022/09/20 09:02:14;;;;;;;7.53;0.90;;;15.20;99.90;;;;;;5035264;28;20474;-88
2022/09/20 09:04:43;;;;;;;9.02;1.00;;;15.10;99.90;;;;;;5034987;28;20056;-88
2022/09/20 09:07:12;;;;;;;8.30;1.02;;;15.00;99.90;;;;;;5035631;28;20049;-88
2022/09/20 09:09:42;;;;;;;6.93;0.82;;;15.00;99.90;;;;;;5035916;28;20053;-88
2022/09/20 09:12:28;;;;;;;4.40;0.68;;;14.90;99.90;;;;;;5035444;28;20064;-87
2022/09/20 09:15:02;;;;;;;5.13;0.98;;;14.80;99.90;;;;;;5035702;28;20092;-88
2022/09/20 09:17:29;;;;;;;5.82;1.15;;;14.70;99.90;;;;;;5035508;28;20048;-89
2022/09/20 09:19:57;;;;;;;7.43;1.10;;;14.70;99.90;;;;;;5035759;28;20442;-87
2022/09/20 09:22:44;;;;;;;5.28;0.82;;;14.60;99.90;;;;;;5034707;28;20132;-88
2022/09/20 09:25:16;;;;;;;6.20;1.02;;;14.50;99.90;;;;;;5034026;28;20506;-87
2022/09/20 09:27:52;;;;;;;5.13;0.85;;;14.80;99.90;;;;;;5035285;28;20045;-88
2022/09/20 09:30:26;;;;;;;5.25;0.93;;;15.20;99.90;;;;;;5050889;28;20160;-89
2022/09/20 09:33:12;;;;;;;2.80;0.70;;;15.60;99.90;;;;;;5034448;28;20041;-88
2022/09/20 09:35:38;;;;;;;8.85;1.30;;;16.10;99.90;;;;;;5035068;28;20072;-87
2022/09/20 09:38:03;;;;;;;11.75;1.60;;;16.50;99.90;;;;;;5034225;28;20045;-88
2022/09/20 09:40:31;;;;;;;4.60;0.90;;;16.90;99.90;;;;;;5033717;28;20099;-87
2022/09/20 09:42:59;;;;;;;6.50;0.90;;;17.40;99.90;;;;;;5035660;28;20053;-87
2022/09/20 09:45:37;;;;;;;6.43;1.42;;;17.90;99.90;;;;;;5035036;28;20100;-88
2022/09/20 09:48:23;;;;;;;7.72;1.17;;;18.20;99.90;;;;;;5035043;28;20096;-88
2022/09/20 09:50:49;;;;;;;6.40;1.00;;;18.10;99.90;;;;;;5033878;28;20081;-88
2022/09/20 09:53:20;;;;;;;10.30;1.40;;;17.70;99.90;;;;;;5034866;28;20084;-88
2022/09/20 09:56:17;;;;;;;6.40;1.05;;;17.30;99.90;;;;;;5034291;28;20065;-88
2022/09/20 09:59:18;;;;;;;8.13;1.23;;;16.90;99.90;;;;;;5034416;28;20136;-87
2022/09/20 10:01:47;;;;;;;9.48;1.50;;;16.40;99.90;;;;;;5036374;28;20042;-87
2022/09/20 10:04:34;;;;;;;7.82;1.10;;;16.10;99.90;;;;;;5035718;28;20081;-87
2022/09/20 10:07:02;;;;;;;6.32;1.20;;;15.80;99.90;;;;;;5033853;28;20041;-87
2022/09/20 10:09:52;;;;;;;6.50;0.80;;;15.60;99.90;;;;;;5033500;28;20491;-87
2022/09/20 10:12:37;;;;;;;8.13;1.27;;;15.40;99.90;;;;;;5033131;28;20085;-87
2022/09/20 10:15:20;;;;;;;5.55;0.93;;;15.30;99.90;;;;;;5034935;28;20076;-88
2022/09/20 10:18:08;;;;;;;7.47;1.10;;;15.20;99.90;;;;;;5034693;28;20084;-87
2022/09/20 10:20:44;;;;;;;6.78;1.17;;;15.30;99.90;;;;;;5033942;28;20495;-88
2022/09/20 10:23:47;;;;;;;6.85;0.88;;;15.40;99.90;;;;;;5033924;28;20056;-87
2022/09/20 10:26:37;;;;;;;5.03;1.00;;;15.50;99.90;;;;;;5034525;28;20052;-87
2022/09/20 10:29:14;;;;;;;5.30;0.98;;;15.40;99.90;;;;;;5035725;28;20057;-86
2022/09/20 10:32:07;;;;;;;7.65;0.90;;;15.30;99.90;;;;;;5042374;28;20049;-86
2022/09/20 10:35:07;;;;;;;5.90;0.80;;;15.20;99.90;;;;;;5042684;28;20050;-87
2022/09/20 10:38:06;;;;;;;6.53;0.88;;;15.10;99.90;;;;;;5035568;28;20050;-87
2022/09/20 10:43:50;;;;;;;7.00;1.10;;;14.90;99.90;;;;;;5033737;28;20061;-87
2022/09/20 10:46:39;;;;;;;11.20;1.10;;;14.80;99.90;;;;;;5033277;28;20065;-87
2022/09/20 10:49:35;;;;;;;6.93;1.00;;;14.80;99.90;;;;;;5050061;28;20110;-89
2022/09/20 10:52:07;;;;;;;6.82;1.25;;;14.70;99.90;;;;;;5049640;28;20053;-87
2022/09/20 10:55:02;;;;;;;4.65;0.95;;;14.50;99.90;;;;;;5033249;28;20124;-87
2022/09/20 10:58:05;;;;;;;4.25;0.75;;;14.40;99.90;;;;;;5034218;28;20057;-87
2022/09/20 11:01:01;;;;;;;4.53;0.80;;;14.30;99.90;;;;;;5033887;28;20049;-87
2022/09/20 11:04:00;;;;;;;6.28;0.80;;;14.30;99.90;;;;;;5032732;28;20060;-87
2022/09/20 11:06:31;;;;;;;3.63;0.73;;;14.30;99.90;;;;;;5033192;28;20499;-87
2022/09/20 11:09:01;;;;;;;3.90;0.82;;;14.30;99.90;;;;;;5032844;28;20041;-87
2022/09/20 11:11:52;;;;;;;8.00;1.00;;;14.40;99.90;;;;;;5033167;28;20050;-87
2022/09/20 11:14:32;;;;;;;2.42;0.80;;;14.50;99.90;;;;;;5033712;28;20042;-88
2022/09/20 11:17:03;;;;;;;3.72;0.80;;;14.50;99.90;;;;;;5049066;28;20557;-87
2022/09/20 11:19:55;;;;;;;6.07;1.00;;;14.60;99.90;;;;;;5033833;28;20114;-87
2022/09/20 11:22:20;;;;;;;3.58;1.00;;;14.70;99.90;;;;;;5032882;28;20071;-88
2022/09/20 11:25:05;;;;;;;6.50;0.85;;;14.80;99.90;;;;;;5032306;28;20050;-87
2022/09/20 11:27:38;;;;;;;4.53;0.90;;;14.90;99.90;;;;;;5032782;28;20060;-87
2022/09/20 11:30:14;;;;;;;3.95;0.77;;;15.10;99.90;;;;;;5033899;28;20123;-88
2022/09/20 11:32:46;;;;;;;2.92;0.50;;;15.20;99.90;;;;;;5032735;28;20052;-87
2022/09/20 11:35:13;;;;;;;5.45;1.10;;;15.30;99.90;;;;;;5033203;28;20042;-87
2022/09/20 11:37:46;;;;;;;5.05;0.90;;;15.40;99.90;;;;;;5032200;28;20053;-87
2022/09/20 11:40:36;;;;;;;5.90;0.70;;;15.50;99.90;;;;;;5033012;28;20045;-87
2022/09/20 11:43:06;;;;;;;5.10;1.00;;;15.60;99.90;;;;;;5033422;28;20099;-87
2022/09/20 11:45:33;;;;;;;2.30;0.93;;;15.70;99.90;;;;;;5033238;28;20499;-88
2022/09/20 11:48:07;;;;;;;5.40;0.85;;;15.80;99.90;;;;;;5033447;28;20045;-87
2022/09/20 11:51:04;;;;;;;3.50;0.73;;;16.00;99.90;;;;;;5033684;28;20068;-87
2022/09/20 11:53:42;;;;;;;5.65;0.88;;;16.50;99.90;;;;;;5032365;28;20088;-87
2022/09/20 11:56:20;;;;;;;3.00;0.50;;;16.60;99.90;;;;;;5033209;28;20050;-87
2022/09/20 11:59:01;;;;;;;7.57;1.88;;;16.70;99.90;;;;;;5032623;28;20571;-87
2022/09/20 12:01:39;;;;;;;4.47;1.20;;;16.70;99.90;;;;;;5033640;28;20106;-87
2022/09/20 12:04:12;;;;;;;4.90;0.65;;;16.50;99.90;;;;;;5032299;28;20137;-87
2022/09/20 12:06:41;;;;;;;6.55;0.80;;;16.40;99.90;;;;;;5033092;28;20558;-87
2022/09/20 12:09:24;;;;;;;5.68;1.20;;;16.20;99.90;;;;;;5033379;28;20057;-87
2022/09/20 12:11:51;;;;;;;4.90;0.80;;;16.10;99.90;;;;;;5048190;28;20064;-90
2022/09/20 12:14:26;;;;;;;3.60;0.80;;;16.00;99.90;;;;;;5034363;28;20049;-88
2022/09/20 12:16:53;;;;;;;3.78;0.90;;;15.90;99.90;;;;;;5035625;28;20103;-88
2022/09/20 12:19:32;;;;;;;4.85;1.10;;;16.00;99.90;;;;;;5037061;28;20136;-88
2022/09/20 12:21:57;;;;;;;5.65;0.63;;;16.40;99.90;;;;;;5035934;28;20053;-88
2022/09/20 12:24:32;;;;;;;2.17;0.52;;;16.80;99.90;;;;;;5052075;28;20044;-88
2022/09/20 12:27:20;;;;;;;3.08;0.63;;;16.90;99.90;;;;;;5036832;28;20049;-88
2022/09/20 12:29:49;;;;;;;7.40;0.93;;;17.00;99.90;;;;;;5036931;28;20410;-89
2022/09/20 12:32:56;;;;;;;6.43;0.80;;;17.20;99.90;;;;;;5036736;28;20050;-89
2022/09/20 12:35:43;;;;;;;4.15;0.82;;;17.50;99.90;;;;;;5054311;28;20044;-88
2022/09/20 12:38:20;;;;;;;7.03;0.95;;;17.60;99.90;;;;;;5054634;28;20041;-89
2022/09/20 12:41:05;;;;;;;5.75;0.90;;;17.40;99.90;;;;;;5040348;28;20140;-88
2022/09/20 12:43:33;;;;;;;10.38;1.20;;;17.30;99.90;;;;;;5035407;28;20050;-88
2022/09/20 12:46:00;;;;;;;5.00;1.00;;;17.20;99.90;;;;;;5036252;28;20120;-89
2022/09/20 12:48:29;;;;;;;6.05;0.85;;;17.20;99.90;;;;;;5035467;28;20084;-88
2022/09/20 12:54:01;;;;;;;10.50;1.42;;;17.60;99.90;;;;;;5035498;28;20053;-88
2022/09/20 12:56:27;;;;;;;4.70;0.82;;;17.90;99.90;;;;;;5035245;28;20111;-88
2022/09/20 12:58:55;;;;;;;7.80;0.95;;;18.10;99.90;;;;;;5035294;28;20056;-89
2022/09/20 13:01:21;;;;;;;7.68;0.77;;;18.20;99.90;;;;;;5036203;28;20103;-88
2022/09/20 13:03:48;;;;;;;7.28;0.90;;;18.20;99.90;;;;;;5035036;28;20049;-89
2022/09/20 13:06:15;;;;;;;7.10;1.02;;;18.10;99.90;;;;;;5035960;28;20125;-88
2022/09/20 13:08:47;;;;;;;4.05;0.70;;;18.00;99.90;;;;;;5034877;28;20058;-89
2022/09/20 13:11:26;;;;;;;4.22;0.95;;;17.90;99.90;;;;;;5033982;28;20495;-88
2022/09/20 13:14:05;;;;;;;5.53;1.05;;;17.90;99.90;;;;;;5034784;28;20045;-87
2022/09/20 13:16:55;;;;;;;7.63;0.88;;;17.70;99.90;;;;;;5034704;28;20045;-88
2022/09/20 13:19:29;;;;;;;2.87;0.90;;;17.50;99.90;;;;;;5035687;28;20076;-88
2022/09/20 13:22:03;;;;;;;7.00;1.65;;;17.20;99.90;;;;;;5035075;28;20387;-88
2022/09/20 13:24:40;;;;;;;4.78;1.23;;;16.90;99.90;;;;;;5035847;28;20043;-87
2022/09/20 13:27:15;;;;;;;7.65;0.90;;;16.70;99.90;;;;;;5018302;28;20057;-87
2022/09/20 13:29:43;;;;;;;5.63;1.00;;;16.40;99.90;;;;;;5034460;28;20081;-86
2022/09/20 13:32:29;;;;;;;6.82;1.10;;;16.10;99.90;;;;;;5035141;28;20045;-86
2022/09/20 13:35:05;;;;;;;8.00;1.35;;;15.80;99.90;;;;;;5034190;28;20499;-87
2022/09/20 13:37:32;;;;;;;4.88;1.20;;;15.50;99.90;;;;;;5034363;28;20049;-87
2022/09/20 13:39:58;;;;;;;5.00;1.00;;;15.40;99.90;;;;;;5034964;28;20486;-87
2022/09/20 13:42:28;;;;;;;9.88;1.38;;;15.40;99.90;;;;;;5033543;28;20045;-87
2022/09/20 13:44:54;;;;;;;8.82;1.40;;;15.40;99.90;;;;;;5034299;28;20049;-87
2022/09/20 13:47:25;;;;;;;7.43;1.80;;;15.50;99.90;;;;;;5034123;28;20053;-87
2022/09/20 13:49:51;;;;;;;7.63;1.17;;;15.60;99.90;;;;;;5035042;28;20486;-87
2022/09/20 13:52:26;;;;;;;3.10;0.80;;;15.80;99.90;;;;;;5035275;28;20049;-88
2022/09/20 13:54:54;;;;;;;6.00;0.95;;;16.00;99.90;;;;;;5033576;28;20041;-88
2022/09/20 13:57:26;;;;;;;6.03;1.15;;;16.10;99.90;;;;;;5033908;28;20124;-87
2022/09/20 13:59:53;;;;;;;5.22;0.88;;;16.20;99.90;;;;;;5034010;28;20403;-87
2022/09/20 14:02:31;;;;;;;7.20;1.00;;;16.20;99.90;;;;;;5017509;28;20089;-87
2022/09/20 14:05:00;;;;;;;7.35;0.80;;;16.20;99.90;;;;;;5034593;28;20499;-87